sensor_id;sensor_type;location;lat;lon;timestamp;pressure;altitude;pressure_sealevel;temperature;humidity
68525;BME280;55524;51.380;13.372;2022-07-21T00:01:51;100433.75;;;23.87;47.09
68525;BME280;55524;51.380;13.372;2022-07-21T00:04:18;100437.06;;;23.80;46.83
68525;BME280;55524;51.380;13.372;2022-07-21T00:06:45;100436.63;;;23.85;46.53
68525;BME280;55524;51.380;13.372;2022-07-21T00:09:13;100442.59;;;23.89;46.66
68525;BME280;55524;51.380;13.372;2022-07-21T00:11:39;100442.03;;;23.85;46.69
68525;BME280;55524;51.380;13.372;2022-07-21T00:14:08;100440.03;;;23.77;46.99
68525;BME280;55524;51.380;13.372;2022-07-21T00:16:36;100449.22;;;23.65;47.48
68525;BME280;55524;51.380;13.372;2022-07-21T00:19:02;100448.78;;;23.50;47.82
68525;BME280;55524;51.380;13.372;2022-07-21T00:21:29;100449.91;;;23.38;48.02
68525;BME280;55524;51.380;13.372;2022-07-21T00:23:55;100452.88;;;23.25;49.04
68525;BME280;55524;51.380;13.372;2022-07-21T00:26:22;100446.47;;;23.26;48.33
68525;BME280;55524;51.380;13.372;2022-07-21T00:28:48;100440.66;;;23.31;48.38
68525;BME280;55524;51.380;13.372;2022-07-21T00:31:14;100445.38;;;23.29;48.56
68525;BME280;55524;51.380;13.372;2022-07-21T00:33:41;100436.69;;;23.25;48.55
68525;BME280;55524;51.380;13.372;2022-07-21T00:36:08;100438.66;;;23.23;48.51
68525;BME280;55524;51.380;13.372;2022-07-21T00:38:34;100444.75;;;23.16;49.45
68525;BME280;55524;51.380;13.372;2022-07-21T00:41:00;100452.41;;;23.11;49.53
68525;BME280;55524;51.380;13.372;2022-07-21T00:43:27;100450.44;;;23.13;49.12
68525;BME280;55524;51.380;13.372;2022-07-21T00:45:54;100465.31;;;23.07;49.62
68525;BME280;55524;51.380;13.372;2022-07-21T00:48:21;100474.25;;;23.07;49.47
68525;BME280;55524;51.380;13.372;2022-07-21T00:50:48;100487.47;;;23.11;49.13
68525;BME280;55524;51.380;13.372;2022-07-21T00:53:14;100501.78;;;23.01;49.92
68525;BME280;55524;51.380;13.372;2022-07-21T00:55:44;100487.03;;;22.84;49.86
68525;BME280;55524;51.380;13.372;2022-07-21T00:58:12;100478.88;;;22.65;50.51
68525;BME280;55524;51.380;13.372;2022-07-21T01:00:39;100477.31;;;22.63;50.57
68525;BME280;55524;51.380;13.372;2022-07-21T01:03:05;100478.88;;;22.65;50.74
68525;BME280;55524;51.380;13.372;2022-07-21T01:05:32;100484.72;;;22.70;50.34
68525;BME280;55524;51.380;13.372;2022-07-21T01:07:58;100476.06;;;22.76;50.48
68525;BME280;55524;51.380;13.372;2022-07-21T01:10:29;100481.16;;;22.70;50.64
68525;BME280;55524;51.380;13.372;2022-07-21T01:12:57;100489.38;;;22.68;50.92
68525;BME280;55524;51.380;13.372;2022-07-21T01:15:24;100485.56;;;22.71;50.17
68525;BME280;55524;51.380;13.372;2022-07-21T01:17:51;100490.09;;;22.70;50.43
68525;BME280;55524;51.380;13.372;2022-07-21T01:20:21;100494.91;;;22.67;50.28
68525;BME280;55524;51.380;13.372;2022-07-21T01:22:53;100490.97;;;22.71;50.14
68525;BME280;55524;51.380;13.372;2022-07-21T01:25:21;100493.06;;;22.67;50.08
68525;BME280;55524;51.380;13.372;2022-07-21T01:27:47;100489.84;;;22.73;50.05
68525;BME280;55524;51.380;13.372;2022-07-21T01:30:15;100501.22;;;22.77;49.88
68525;BME280;55524;51.380;13.372;2022-07-21T01:32:42;100505.50;;;22.58;50.38
68525;BME280;55524;51.380;13.372;2022-07-21T01:35:13;100506.16;;;22.51;50.72
68525;BME280;55524;51.380;13.372;2022-07-21T01:37:42;100538.66;;;22.17;53.53
68525;BME280;55524;51.380;13.372;2022-07-21T01:40:09;100527.31;;;22.34;51.11
68525;BME280;55524;51.380;13.372;2022-07-21T01:42:54;100523.78;;;22.55;50.23
68525;BME280;55524;51.380;13.372;2022-07-21T01:45:21;100531.81;;;22.76;49.56
68525;BME280;55524;51.380;13.372;2022-07-21T01:47:48;100534.09;;;22.80;49.25
68525;BME280;55524;51.380;13.372;2022-07-21T01:50:15;100529.78;;;22.89;48.67
68525;BME280;55524;51.380;13.372;2022-07-21T01:52:42;100530.97;;;22.96;48.42
68525;BME280;55524;51.380;13.372;2022-07-21T01:55:08;100524.91;;;23.04;48.12
68525;BME280;55524;51.380;13.372;2022-07-21T01:57:34;100526.63;;;23.05;48.60
68525;BME280;55524;51.380;13.372;2022-07-21T02:00:01;100529.59;;;23.12;48.02
68525;BME280;55524;51.380;13.372;2022-07-21T02:02:27;100517.19;;;23.20;47.58
68525;BME280;55524;51.380;13.372;2022-07-21T02:04:54;100525.44;;;23.28;47.83
68525;BME280;55524;51.380;13.372;2022-07-21T02:07:20;100520.72;;;23.21;47.77
68525;BME280;55524;51.380;13.372;2022-07-21T02:09:46;100514.34;;;23.22;47.89
68525;BME280;55524;51.380;13.372;2022-07-21T02:12:12;100511.94;;;23.28;47.73
68525;BME280;55524;51.380;13.372;2022-07-21T02:14:39;100539.53;;;23.11;52.38
68525;BME280;55524;51.380;13.372;2022-07-21T02:17:05;100552.69;;;22.95;53.24
68525;BME280;55524;51.380;13.372;2022-07-21T02:19:31;100537.41;;;23.05;50.56
68525;BME280;55524;51.380;13.372;2022-07-21T02:21:57;100538.94;;;22.98;53.27
68525;BME280;55524;51.380;13.372;2022-07-21T02:24:24;100543.66;;;23.05;52.61
68525;BME280;55524;51.380;13.372;2022-07-21T02:26:50;100542.25;;;23.11;52.90
68525;BME280;55524;51.380;13.372;2022-07-21T02:29:16;100557.44;;;23.12;55.39
68525;BME280;55524;51.380;13.372;2022-07-21T02:31:42;100565.88;;;22.98;56.52
68525;BME280;55524;51.380;13.372;2022-07-21T02:34:09;100570.19;;;23.10;56.35
68525;BME280;55524;51.380;13.372;2022-07-21T02:36:35;100566.91;;;23.06;55.39
68525;BME280;55524;51.380;13.372;2022-07-21T02:39:01;100568.84;;;22.95;56.66
68525;BME280;55524;51.380;13.372;2022-07-21T02:41:28;100590.16;;;22.98;57.90
68525;BME280;55524;51.380;13.372;2022-07-21T02:43:54;100584.19;;;22.94;57.98
68525;BME280;55524;51.380;13.372;2022-07-21T02:46:20;100581.44;;;23.15;56.83
68525;BME280;55524;51.380;13.372;2022-07-21T02:48:46;100581.13;;;23.09;56.82
68525;BME280;55524;51.380;13.372;2022-07-21T02:51:12;100589.13;;;23.20;56.58
68525;BME280;55524;51.380;13.372;2022-07-21T02:53:39;100594.81;;;23.26;58.12
68525;BME280;55524;51.380;13.372;2022-07-21T02:56:05;100595.81;;;23.25;56.81
68525;BME280;55524;51.380;13.372;2022-07-21T02:58:31;100607.56;;;23.15;58.57
68525;BME280;55524;51.380;13.372;2022-07-21T03:01:01;100603.59;;;23.19;58.10
68525;BME280;55524;51.380;13.372;2022-07-21T03:03:30;100608.94;;;23.09;60.90
68525;BME280;55524;51.380;13.372;2022-07-21T03:05:57;100612.06;;;23.04;59.76
68525;BME280;55524;51.380;13.372;2022-07-21T03:08:25;100621.09;;;23.03;60.63
68525;BME280;55524;51.380;13.372;2022-07-21T03:10:52;100622.94;;;23.03;59.90
68525;BME280;55524;51.380;13.372;2022-07-21T03:13:19;100630.72;;;22.96;60.76
68525;BME280;55524;51.380;13.372;2022-07-21T03:15:46;100623.13;;;23.11;59.23
68525;BME280;55524;51.380;13.372;2022-07-21T03:18:12;100630.53;;;23.09;60.00
68525;BME280;55524;51.380;13.372;2022-07-21T03:20:40;100630.16;;;22.93;60.61
68525;BME280;55524;51.380;13.372;2022-07-21T03:23:07;100631.78;;;23.05;60.57
68525;BME280;55524;51.380;13.372;2022-07-21T03:25:34;100626.56;;;23.13;59.60
68525;BME280;55524;51.380;13.372;2022-07-21T03:28:00;100621.19;;;23.13;59.88
68525;BME280;55524;51.380;13.372;2022-07-21T03:30:27;100628.50;;;23.01;60.44
68525;BME280;55524;51.380;13.372;2022-07-21T03:32:54;100637.09;;;22.95;60.61
68525;BME280;55524;51.380;13.372;2022-07-21T03:35:21;100632.44;;;22.97;60.52
68525;BME280;55524;51.380;13.372;2022-07-21T03:37:52;100643.34;;;22.96;63.06
68525;BME280;55524;51.380;13.372;2022-07-21T03:40:21;100644.97;;;22.87;62.44
68525;BME280;55524;51.380;13.372;2022-07-21T03:42:51;100633.81;;;22.92;61.24
68525;BME280;55524;51.380;13.372;2022-07-21T03:45:18;100643.91;;;22.78;62.18
68525;BME280;55524;51.380;13.372;2022-07-21T03:47:45;100653.38;;;22.73;62.96
68525;BME280;55524;51.380;13.372;2022-07-21T03:50:11;100656.94;;;22.73;62.79
68525;BME280;55524;51.380;13.372;2022-07-21T03:52:44;100661.53;;;22.62;63.75
68525;BME280;55524;51.380;13.372;2022-07-21T03:55:10;100660.19;;;22.56;63.79
68525;BME280;55524;51.380;13.372;2022-07-21T03:57:46;100665.09;;;22.51;63.74
68525;BME280;55524;51.380;13.372;2022-07-21T04:00:37;100675.13;;;22.49;64.24
68525;BME280;55524;51.380;13.372;2022-07-21T04:03:01;100682.16;;;22.40;65.19
68525;BME280;55524;51.380;13.372;2022-07-21T04:05:28;100679.72;;;22.37;64.24
68525;BME280;55524;51.380;13.372;2022-07-21T04:07:55;100680.47;;;22.28;65.25
68525;BME280;55524;51.380;13.372;2022-07-21T04:10:27;100678.91;;;22.25;64.71
68525;BME280;55524;51.380;13.372;2022-07-21T04:12:55;100683.19;;;22.28;64.74
68525;BME280;55524;51.380;13.372;2022-07-21T04:15:23;100673.25;;;22.28;63.81
68525;BME280;55524;51.380;13.372;2022-07-21T04:17:50;100677.63;;;22.41;63.29
68525;BME280;55524;51.380;13.372;2022-07-21T04:20:17;100672.72;;;22.46;63.05
68525;BME280;55524;51.380;13.372;2022-07-21T04:22:45;100679.44;;;22.51;63.30
68525;BME280;55524;51.380;13.372;2022-07-21T04:25:13;100675.94;;;22.61;62.81
68525;BME280;55524;51.380;13.372;2022-07-21T04:27:40;100670.09;;;22.55;62.59
68525;BME280;55524;51.380;13.372;2022-07-21T04:30:10;100674.81;;;22.74;62.10
68525;BME280;55524;51.380;13.372;2022-07-21T04:32:38;100677.63;;;22.73;62.88
68525;BME280;55524;51.380;13.372;2022-07-21T04:35:05;100679.34;;;22.74;62.47
68525;BME280;55524;51.380;13.372;2022-07-21T04:37:32;100685.13;;;22.69;63.50
68525;BME280;55524;51.380;13.372;2022-07-21T04:39:59;100684.59;;;22.75;62.11
68525;BME280;55524;51.380;13.372;2022-07-21T04:42:25;100683.69;;;22.86;61.64
68525;BME280;55524;51.380;13.372;2022-07-21T04:44:51;100681.94;;;22.96;60.36
68525;BME280;55524;51.380;13.372;2022-07-21T04:47:18;100684.47;;;23.09;60.30
68525;BME280;55524;51.380;13.372;2022-07-21T04:49:44;100667.47;;;23.18;59.16
68525;BME280;55524;51.380;13.372;2022-07-21T04:52:11;100653.72;;;23.21;59.39
68525;BME280;55524;51.380;13.372;2022-07-21T04:54:37;100651.88;;;23.22;59.65
68525;BME280;55524;51.380;13.372;2022-07-21T04:57:04;100644.81;;;23.30;58.86
68525;BME280;55524;51.380;13.372;2022-07-21T04:59:32;100658.72;;;23.26;60.14
68525;BME280;55524;51.380;13.372;2022-07-21T05:01:58;100652.06;;;23.30;58.72
68525;BME280;55524;51.380;13.372;2022-07-21T05:04:25;100658.38;;;23.40;59.06
68525;BME280;55524;51.380;13.372;2022-07-21T05:06:52;100664.63;;;23.41;59.47
68525;BME280;55524;51.380;13.372;2022-07-21T05:09:19;100658.25;;;23.51;58.10
68525;BME280;55524;51.380;13.372;2022-07-21T05:11:45;100666.94;;;23.55;59.63
68525;BME280;55524;51.380;13.372;2022-07-21T05:14:11;100661.00;;;23.61;58.99
68525;BME280;55524;51.380;13.372;2022-07-21T05:16:37;100663.50;;;23.74;57.73
68525;BME280;55524;51.380;13.372;2022-07-21T05:19:04;100647.63;;;23.80;57.29
68525;BME280;55524;51.380;13.372;2022-07-21T05:21:30;100643.09;;;23.91;56.94
68525;BME280;55524;51.380;13.372;2022-07-21T05:23:56;100647.66;;;24.00;56.30
68525;BME280;55524;51.380;13.372;2022-07-21T05:26:23;100656.94;;;24.17;56.12
68525;BME280;55524;51.380;13.372;2022-07-21T05:28:49;100674.28;;;24.34;55.78
68525;BME280;55524;51.380;13.372;2022-07-21T05:31:15;100670.50;;;24.46;55.33
68525;BME280;55524;51.380;13.372;2022-07-21T05:33:42;100663.69;;;24.61;54.99
68525;BME280;55524;51.380;13.372;2022-07-21T05:36:08;100645.03;;;24.77;53.82
68525;BME280;55524;51.380;13.372;2022-07-21T05:38:34;100650.56;;;24.95;53.33
68525;BME280;55524;51.380;13.372;2022-07-21T05:41:00;100655.53;;;25.10;52.78
68525;BME280;55524;51.380;13.372;2022-07-21T05:43:30;100652.78;;;25.29;52.28
68525;BME280;55524;51.380;13.372;2022-07-21T05:45:56;100654.47;;;25.40;51.41
68525;BME280;55524;51.380;13.372;2022-07-21T05:48:23;100643.34;;;25.43;51.31
68525;BME280;55524;51.380;13.372;2022-07-21T05:50:49;100636.72;;;25.55;50.48
68525;BME280;55524;51.380;13.372;2022-07-21T05:53:15;100629.72;;;25.62;49.42
68525;BME280;55524;51.380;13.372;2022-07-21T05:55:42;100625.66;;;25.76;49.09
68525;BME280;55524;51.380;13.372;2022-07-21T05:58:08;100626.88;;;25.91;49.26
68525;BME280;55524;51.380;13.372;2022-07-21T06:00:35;100622.47;;;25.90;48.93
68525;BME280;55524;51.380;13.372;2022-07-21T06:03:01;100629.97;;;25.96;49.50
68525;BME280;55524;51.380;13.372;2022-07-21T06:05:27;100634.41;;;25.97;48.68
68525;BME280;55524;51.380;13.372;2022-07-21T06:07:53;100622.78;;;26.05;46.88
68525;BME280;55524;51.380;13.372;2022-07-21T06:10:19;100608.72;;;26.19;46.85
68525;BME280;55524;51.380;13.372;2022-07-21T06:12:46;100621.41;;;26.37;47.34
68525;BME280;55524;51.380;13.372;2022-07-21T06:15:12;100613.66;;;26.42;47.11
68525;BME280;55524;51.380;13.372;2022-07-21T06:17:44;100608.25;;;26.42;46.23
68525;BME280;55524;51.380;13.372;2022-07-21T06:20:12;100612.59;;;26.35;46.59
68525;BME280;55524;51.380;13.372;2022-07-21T06:22:39;100607.63;;;26.12;47.36
68525;BME280;55524;51.380;13.372;2022-07-21T06:25:05;100615.06;;;26.28;47.36
68525;BME280;55524;51.380;13.372;2022-07-21T06:27:32;100607.22;;;26.43;46.21
68525;BME280;55524;51.380;13.372;2022-07-21T06:29:58;100613.38;;;26.63;45.99
68525;BME280;55524;51.380;13.372;2022-07-21T06:32:25;100599.06;;;26.79;45.02
68525;BME280;55524;51.380;13.372;2022-07-21T06:34:52;100597.69;;;26.75;44.55
68525;BME280;55524;51.380;13.372;2022-07-21T06:37:18;100608.47;;;26.66;45.31
68525;BME280;55524;51.380;13.372;2022-07-21T06:39:45;100629.75;;;26.79;45.23
68525;BME280;55524;51.380;13.372;2022-07-21T06:42:11;100619.16;;;27.12;43.85
68525;BME280;55524;51.380;13.372;2022-07-21T06:44:37;100626.84;;;27.16;43.53
68525;BME280;55524;51.380;13.372;2022-07-21T06:47:03;100624.31;;;27.23;42.87
68525;BME280;55524;51.380;13.372;2022-07-21T06:49:33;100648.69;;;27.41;43.69
68525;BME280;55524;51.380;13.372;2022-07-21T06:52:00;100642.69;;;27.29;42.93
68525;BME280;55524;51.380;13.372;2022-07-21T06:54:26;100654.41;;;27.30;43.40
68525;BME280;55524;51.380;13.372;2022-07-21T06:56:53;100641.50;;;27.06;42.48
68525;BME280;55524;51.380;13.372;2022-07-21T06:59:19;100656.75;;;27.07;43.84
68525;BME280;55524;51.380;13.372;2022-07-21T07:01:45;100658.03;;;27.12;43.52
68525;BME280;55524;51.380;13.372;2022-07-21T07:04:11;100663.75;;;27.09;43.41
68525;BME280;55524;51.380;13.372;2022-07-21T07:06:38;100669.97;;;27.02;44.85
68525;BME280;55524;51.380;13.372;2022-07-21T07:09:04;100668.56;;;26.97;44.11
68525;BME280;55524;51.380;13.372;2022-07-21T07:11:30;100672.88;;;27.08;44.59
68525;BME280;55524;51.380;13.372;2022-07-21T07:13:56;100671.13;;;26.99;44.13
68525;BME280;55524;51.380;13.372;2022-07-21T07:16:23;100681.59;;;26.94;44.85
68525;BME280;55524;51.380;13.372;2022-07-21T07:18:49;100676.91;;;26.78;45.34
68525;BME280;55524;51.380;13.372;2022-07-21T07:21:15;100686.66;;;26.89;45.40
68525;BME280;55524;51.380;13.372;2022-07-21T07:23:41;100674.69;;;27.00;44.34
68525;BME280;55524;51.380;13.372;2022-07-21T07:26:09;100666.00;;;27.14;43.82
68525;BME280;55524;51.380;13.372;2022-07-21T07:28:35;100674.69;;;27.17;44.05
68525;BME280;55524;51.380;13.372;2022-07-21T07:31:01;100672.81;;;27.00;44.47
68525;BME280;55524;51.380;13.372;2022-07-21T07:33:28;100689.31;;;27.07;45.34
68525;BME280;55524;51.380;13.372;2022-07-21T07:35:54;100685.41;;;27.27;44.19
68525;BME280;55524;51.380;13.372;2022-07-21T07:38:22;100681.97;;;27.43;43.51
68525;BME280;55524;51.380;13.372;2022-07-21T07:40:48;100680.00;;;27.53;43.85
68525;BME280;55524;51.380;13.372;2022-07-21T07:43:14;100685.75;;;27.50;44.33
68525;BME280;55524;51.380;13.372;2022-07-21T07:45:41;100679.56;;;27.40;43.77
68525;BME280;55524;51.380;13.372;2022-07-21T07:48:07;100691.34;;;27.49;43.84
68525;BME280;55524;51.380;13.372;2022-07-21T07:50:33;100691.38;;;27.31;43.76
68525;BME280;55524;51.380;13.372;2022-07-21T07:52:59;100686.75;;;27.49;44.01
68525;BME280;55524;51.380;13.372;2022-07-21T07:55:26;100682.66;;;27.19;43.67
68525;BME280;55524;51.380;13.372;2022-07-21T07:57:52;100690.84;;;27.27;43.81
68525;BME280;55524;51.380;13.372;2022-07-21T08:00:19;100693.84;;;27.42;43.62
68525;BME280;55524;51.380;13.372;2022-07-21T08:02:46;100694.69;;;27.42;43.67
68525;BME280;55524;51.380;13.372;2022-07-21T08:05:12;100692.78;;;27.35;44.46
68525;BME280;55524;51.380;13.372;2022-07-21T08:07:40;100676.25;;;27.54;43.53
68525;BME280;55524;51.380;13.372;2022-07-21T08:10:08;100678.66;;;27.91;43.05
68525;BME280;55524;51.380;13.372;2022-07-21T08:12:35;100679.84;;;27.89;43.47
68525;BME280;55524;51.380;13.372;2022-07-21T08:15:03;100679.97;;;27.79;43.47
68525;BME280;55524;51.380;13.372;2022-07-21T08:17:29;100677.09;;;27.81;43.03
68525;BME280;55524;51.380;13.372;2022-07-21T08:19:58;100681.00;;;27.86;43.84
68525;BME280;55524;51.380;13.372;2022-07-21T08:22:25;100674.69;;;27.78;42.54
68525;BME280;55524;51.380;13.372;2022-07-21T08:24:54;100658.38;;;28.20;41.74
68525;BME280;55524;51.380;13.372;2022-07-21T08:27:20;100664.94;;;28.76;42.07
68525;BME280;55524;51.380;13.372;2022-07-21T08:29:47;100660.00;;;29.12;40.82
68525;BME280;55524;51.380;13.372;2022-07-21T08:32:15;100655.72;;;29.18;41.23
68525;BME280;55524;51.380;13.372;2022-07-21T08:34:44;100650.88;;;29.45;40.43
68525;BME280;55524;51.380;13.372;2022-07-21T08:37:10;100650.56;;;29.39;40.02
68525;BME280;55524;51.380;13.372;2022-07-21T08:39:36;100654.31;;;29.47;40.78
68525;BME280;55524;51.380;13.372;2022-07-21T08:42:05;100648.75;;;29.24;40.57
68525;BME280;55524;51.380;13.372;2022-07-21T08:44:32;100656.09;;;29.15;40.63
68525;BME280;55524;51.380;13.372;2022-07-21T08:46:58;100652.84;;;29.20;41.25
68525;BME280;55524;51.380;13.372;2022-07-21T08:49:25;100653.84;;;29.27;40.97
68525;BME280;55524;51.380;13.372;2022-07-21T08:51:52;100663.88;;;29.34;41.20
68525;BME280;55524;51.380;13.372;2022-07-21T08:54:22;100673.94;;;29.01;42.14
68525;BME280;55524;51.380;13.372;2022-07-21T08:56:49;100676.13;;;29.14;41.55
68525;BME280;55524;51.380;13.372;2022-07-21T08:59:16;100662.66;;;29.37;40.30
68525;BME280;55524;51.380;13.372;2022-07-21T09:01:42;100657.31;;;29.68;40.36
68525;BME280;55524;51.380;13.372;2022-07-21T09:04:27;100663.56;;;29.77;40.06
68525;BME280;55524;51.380;13.372;2022-07-21T09:06:59;100656.25;;;30.08;39.30
68525;BME280;55524;51.380;13.372;2022-07-21T09:09:27;100643.19;;;30.58;37.54
68525;BME280;55524;51.380;13.372;2022-07-21T09:11:54;100657.31;;;30.61;39.73
68525;BME280;55524;51.380;13.372;2022-07-21T09:14:23;100655.53;;;30.69;38.34
68525;BME280;55524;51.380;13.372;2022-07-21T09:16:52;100651.00;;;30.38;37.81
68525;BME280;55524;51.380;13.372;2022-07-21T09:21:55;100665.66;;;30.37;38.96
68525;BME280;55524;51.380;13.372;2022-07-21T09:24:30;100670.16;;;30.30;39.91
68525;BME280;55524;51.380;13.372;2022-07-21T09:27:11;100670.25;;;30.36;38.84
68525;BME280;55524;51.380;13.372;2022-07-21T09:32:14;100664.09;;;30.66;39.41
68525;BME280;55524;51.380;13.372;2022-07-21T09:34:42;100671.06;;;30.45;39.96
68525;BME280;55524;51.380;13.372;2022-07-21T09:37:09;100670.88;;;30.70;39.16
68525;BME280;55524;51.380;13.372;2022-07-21T09:40:16;100666.63;;;30.44;38.63
68525;BME280;55524;51.380;13.372;2022-07-21T09:42:39;100680.59;;;30.95;40.03
68525;BME280;55524;51.380;13.372;2022-07-21T09:45:08;100675.25;;;30.56;38.75
68525;BME280;55524;51.380;13.372;2022-07-21T09:47:36;100673.78;;;30.91;38.13
68525;BME280;55524;51.380;13.372;2022-07-21T09:50:07;100673.19;;;31.19;38.30
68525;BME280;55524;51.380;13.372;2022-07-21T09:52:39;100673.22;;;30.81;38.66
68525;BME280;55524;51.380;13.372;2022-07-21T09:55:14;100679.13;;;30.38;39.47
68525;BME280;55524;51.380;13.372;2022-07-21T09:57:43;100669.50;;;30.51;39.16
68525;BME280;55524;51.380;13.372;2022-07-21T10:00:14;100671.81;;;30.62;40.02
68525;BME280;55524;51.380;13.372;2022-07-21T10:02:44;100672.25;;;30.20;39.78
68525;BME280;55524;51.380;13.372;2022-07-21T10:05:13;100677.56;;;29.65;40.45
68525;BME280;55524;51.380;13.372;2022-07-21T10:07:43;100681.03;;;29.43;40.87
68525;BME280;55524;51.380;13.372;2022-07-21T10:10:10;100673.47;;;29.78;40.51
68525;BME280;55524;51.380;13.372;2022-07-21T10:12:39;100689.50;;;29.64;40.50
68525;BME280;55524;51.380;13.372;2022-07-21T10:15:06;100694.63;;;29.59;40.37
68525;BME280;55524;51.380;13.372;2022-07-21T10:17:33;100704.00;;;29.57;41.56
68525;BME280;55524;51.380;13.372;2022-07-21T10:20:32;100708.44;;;29.33;41.74
68525;BME280;55524;51.380;13.372;2022-07-21T10:25:34;100708.63;;;29.40;42.49
68525;BME280;55524;51.380;13.372;2022-07-21T10:28:17;100708.81;;;29.22;42.70
68525;BME280;55524;51.380;13.372;2022-07-21T10:30:55;100706.59;;;29.17;42.09
68525;BME280;55524;51.380;13.372;2022-07-21T10:41:38;100721.50;;;27.71;46.15
68525;BME280;55524;51.380;13.372;2022-07-21T10:49:58;100764.97;;;27.45;48.00
68525;BME280;55524;51.380;13.372;2022-07-21T10:57:38;100752.25;;;27.46;48.41
68525;BME280;55524;51.380;13.372;2022-07-21T11:00:24;100740.72;;;27.08;49.97
68525;BME280;55524;51.380;13.372;2022-07-21T11:02:57;100763.16;;;26.75;51.63
68525;BME280;55524;51.380;13.372;2022-07-21T11:05:25;100797.06;;;26.61;52.23
68525;BME280;55524;51.380;13.372;2022-07-21T11:08:15;100817.56;;;26.73;53.18
68525;BME280;55524;51.380;13.372;2022-07-21T11:10:52;100834.78;;;26.44;55.61
68525;BME280;55524;51.380;13.372;2022-07-21T11:13:21;100826.09;;;26.41;55.44
68525;BME280;55524;51.380;13.372;2022-07-21T11:18:24;100844.59;;;26.28;55.28
68525;BME280;55524;51.380;13.372;2022-07-21T11:21:07;100845.28;;;25.92;54.88
68525;BME280;55524;51.380;13.372;2022-07-21T11:23:48;100869.53;;;25.74;57.34
68525;BME280;55524;51.380;13.372;2022-07-21T11:26:23;100884.38;;;25.51;57.97
68525;BME280;55524;51.380;13.372;2022-07-21T11:29:05;100899.28;;;25.07;64.20
68525;BME280;55524;51.380;13.372;2022-07-21T11:31:44;100908.78;;;24.30;67.61
68525;BME280;55524;51.380;13.372;2022-07-21T11:34:11;100894.19;;;24.12;68.26
68525;BME280;55524;51.380;13.372;2022-07-21T11:36:38;100896.63;;;23.94;69.76
68525;BME280;55524;51.380;13.372;2022-07-21T11:39:11;100901.31;;;23.71;72.27
68525;BME280;55524;51.380;13.372;2022-07-21T11:41:40;100903.16;;;23.59;72.00
68525;BME280;55524;51.380;13.372;2022-07-21T11:44:09;100907.13;;;23.55;73.10
68525;BME280;55524;51.380;13.372;2022-07-21T11:46:46;100891.97;;;23.43;75.85
68525;BME280;55524;51.380;13.372;2022-07-21T11:49:13;100905.47;;;22.99;78.91
68525;BME280;55524;51.380;13.372;2022-07-21T11:51:50;100910.88;;;22.77;83.60
68525;BME280;55524;51.380;13.372;2022-07-21T11:54:25;100909.53;;;22.49;82.88
68525;BME280;55524;51.380;13.372;2022-07-21T11:56:53;100901.94;;;22.54;83.91
68525;BME280;55524;51.380;13.372;2022-07-21T11:59:20;100903.88;;;22.41;85.88
68525;BME280;55524;51.380;13.372;2022-07-21T12:01:58;100907.69;;;22.27;86.95
68525;BME280;55524;51.380;13.372;2022-07-21T12:07:07;100882.59;;;22.15;89.75
68525;BME280;55524;51.380;13.372;2022-07-21T12:09:37;100876.22;;;22.27;91.74
68525;BME280;55524;51.380;13.372;2022-07-21T12:12:03;100880.88;;;22.14;89.90
68525;BME280;55524;51.380;13.372;2022-07-21T12:14:42;100876.16;;;22.05;90.66
68525;BME280;55524;51.380;13.372;2022-07-21T12:17:09;100867.06;;;22.19;91.60
68525;BME280;55524;51.380;13.372;2022-07-21T12:19:37;100858.84;;;22.20;92.07
68525;BME280;55524;51.380;13.372;2022-07-21T12:22:04;100858.00;;;22.20;92.79
68525;BME280;55524;51.380;13.372;2022-07-21T12:24:53;100852.97;;;22.26;91.93
68525;BME280;55524;51.380;13.372;2022-07-21T12:27:21;100838.53;;;22.39;92.85
68525;BME280;55524;51.380;13.372;2022-07-21T12:29:48;100848.94;;;22.43;90.33
68525;BME280;55524;51.380;13.372;2022-07-21T12:32:37;100857.38;;;22.50;89.42
68525;BME280;55524;51.380;13.372;2022-07-21T12:35:02;100866.06;;;22.31;90.41
68525;BME280;55524;51.380;13.372;2022-07-21T12:37:58;100862.78;;;22.39;93.17
68525;BME280;55524;51.380;13.372;2022-07-21T12:40:25;100857.63;;;22.58;92.24
68525;BME280;55524;51.380;13.372;2022-07-21T12:43:02;100863.22;;;22.77;92.96
68525;BME280;55524;51.380;13.372;2022-07-21T12:45:29;100849.34;;;22.82;90.47
68525;BME280;55524;51.380;13.372;2022-07-21T12:48:12;100842.63;;;22.76;87.16
68525;BME280;55524;51.380;13.372;2022-07-21T12:50:40;100837.84;;;22.80;87.61
68525;BME280;55524;51.380;13.372;2022-07-21T12:53:12;100854.63;;;22.72;88.16
68525;BME280;55524;51.380;13.372;2022-07-21T12:55:39;100840.31;;;22.61;87.42
68525;BME280;55524;51.380;13.372;2022-07-21T12:58:06;100832.59;;;22.67;87.88
68525;BME280;55524;51.380;13.372;2022-07-21T13:00:32;100848.28;;;22.62;89.20
68525;BME280;55524;51.380;13.372;2022-07-21T13:02:59;100846.69;;;22.71;90.89
68525;BME280;55524;51.380;13.372;2022-07-21T13:05:26;100855.50;;;22.73;90.62
68525;BME280;55524;51.380;13.372;2022-07-21T13:07:53;100861.75;;;22.73;91.36
68525;BME280;55524;51.380;13.372;2022-07-21T13:10:21;100863.72;;;22.71;91.78
68525;BME280;55524;51.380;13.372;2022-07-21T13:12:47;100862.50;;;22.53;90.88
68525;BME280;55524;51.380;13.372;2022-07-21T13:15:15;100856.63;;;22.59;90.00
68525;BME280;55524;51.380;13.372;2022-07-21T13:17:41;100844.38;;;22.44;88.81
68525;BME280;55524;51.380;13.372;2022-07-21T13:20:08;100855.06;;;22.45;90.45